Aviation Digital Data Service (ADDS)

Output produced by METARs form (0005 UTC 25 April 2019)
found at http://www.aviationweather.gov/metar/data/
 
METAR text: EDDM 242350Z VRB01KT CAVOK 10/05 Q1012 NOSIG
Conditions at: EDDM (MUNICH-FLUGHAFEN, DE) observed 2350 UTC 24 April 2019
Temperature: 10.0°C (50°F)
Dewpoint: 5.0°C (41°F) [RH = 71%]
Pressure (altimeter): 29.88 inches Hg (1012.0 mb)
Winds: variable direction winds at 1 MPH (1 knots; 0.5 m/s)
Visibility: 6 or more miles (10+ km)
Ceiling: ceiling and visibility are OK
Clouds: unknown
Weather: no significant weather observed at this time

METAR text: EDDM 242320Z 36004KT 320V040 CAVOK 11/06 Q1011 NOSIG
Conditions at: EDDM (MUNICH-FLUGHAFEN, DE) observed 2320 UTC 24 April 2019
Temperature: 11.0°C (52°F)
Dewpoint: 6.0°C (43°F) [RH = 71%]
Pressure (altimeter): 29.85 inches Hg (1011.0 mb)
Winds: from the N (360 degrees) at 5 MPH (4 knots; 2.1 m/s)
Visibility: 6 or more miles (10+ km)
Ceiling: ceiling and visibility are OK
Clouds: unknown
Weather: no significant weather observed at this time

METAR text: EDDM 242250Z 32006KT CAVOK 12/07 Q1011 NOSIG
Conditions at: EDDM (MUNICH-FLUGHAFEN, DE) observed 2250 UTC 24 April 2019
Temperature: 12.0°C (54°F)
Dewpoint: 7.0°C (45°F) [RH = 71%]
Pressure (altimeter): 29.85 inches Hg (1011.0 mb)
Winds: from the NW (320 degrees) at 7 MPH (6 knots; 3.1 m/s)
Visibility: 6 or more miles (10+ km)
Ceiling: ceiling and visibility are OK
Clouds: unknown
Weather: no significant weather observed at this time

METAR text: EDDM 242220Z 32006KT 290V010 CAVOK 13/07 Q1011 NOSIG
Conditions at: EDDM (MUNICH-FLUGHAFEN, DE) observed 2220 UTC 24 April 2019
Temperature: 13.0°C (55°F)
Dewpoint: 7.0°C (45°F) [RH = 67%]
Pressure (altimeter): 29.85 inches Hg (1011.0 mb)
Winds: from the NW (320 degrees) at 7 MPH (6 knots; 3.1 m/s)
Visibility: 6 or more miles (10+ km)
Ceiling: ceiling and visibility are OK
Clouds: unknown
Weather: no significant weather observed at this time

METAR text: EDDM 242150Z 30008KT 270V330 CAVOK 13/07 Q1010 BECMG 25010KT
Conditions at: EDDM (MUNICH-FLUGHAFEN, DE) observed 2150 UTC 24 April 2019
Temperature: 13.0°C (55°F)
Dewpoint: 7.0°C (45°F) [RH = 67%]
Pressure (altimeter): 29.82 inches Hg (1010.0 mb)
Winds: from the WNW (300 degrees) at 9 MPH (8 knots; 4.1 m/s)
Visibility: 6 or more miles (10+ km)
Ceiling: ceiling and visibility are OK
Clouds: unknown
Weather: no significant weather observed at this time

METAR text: EDDM 242120Z 30013KT CAVOK 15/07 Q1009 BECMG 25010KT
Conditions at: EDDM (MUNICH-FLUGHAFEN, DE) observed 2120 UTC 24 April 2019
Temperature: 15.0°C (59°F)
Dewpoint: 7.0°C (45°F) [RH = 59%]
Pressure (altimeter): 29.79 inches Hg (1009.0 mb)
Winds: from the WNW (300 degrees) at 15 MPH (13 knots; 6.7 m/s)
Visibility: 6 or more miles (10+ km)
Ceiling: ceiling and visibility are OK
Clouds: unknown
Weather: no significant weather observed at this time

METAR text: EDDM 242050Z 28013G27KT 250V310 CAVOK 18/03 Q1008 BECMG 25010KT
Conditions at: EDDM (MUNICH-FLUGHAFEN, DE) observed 2050 UTC 24 April 2019
Temperature: 18.0°C (64°F)
Dewpoint: 3.0°C (37°F) [RH = 37%]
Pressure (altimeter): 29.76 inches Hg (1008.0 mb)
Winds: from the W (280 degrees) at 15 MPH (13 knots; 6.7 m/s)
gusting to 31 MPH (27 knots; 13.9 m/s)
Visibility: 6 or more miles (10+ km)
Ceiling: ceiling and visibility are OK
Clouds: unknown
Weather: no significant weather observed at this time

METAR text: EDDM 242020Z 22010KT 190V250 CAVOK 19/02 Q1007 BECMG 30015G25KT
Conditions at: EDDM (MUNICH-FLUGHAFEN, DE) observed 2020 UTC 24 April 2019
Temperature: 19.0°C (66°F)
Dewpoint: 2.0°C (36°F) [RH = 32%]
Pressure (altimeter): 29.73 inches Hg (1007.0 mb)
Winds: from the SW (220 degrees) at 12 MPH (10 knots; 5.1 m/s)
Visibility: 6 or more miles (10+ km)
Ceiling: ceiling and visibility are OK
Clouds: unknown
Weather: no significant weather observed at this time

METAR text: EDDM 241950Z 18011KT CAVOK 19/02 Q1006 BECMG 26015KT
Conditions at: EDDM (MUNICH-FLUGHAFEN, DE) observed 1950 UTC 24 April 2019
Temperature: 19.0°C (66°F)
Dewpoint: 2.0°C (36°F) [RH = 32%]
Pressure (altimeter): 29.70 inches Hg (1006.0 mb)
Winds: from the S (180 degrees) at 13 MPH (11 knots; 5.7 m/s)
Visibility: 6 or more miles (10+ km)
Ceiling: ceiling and visibility are OK
Clouds: unknown
Weather: no significant weather observed at this time

METAR text: EDDM 241920Z 18013KT CAVOK 20/02 Q1006 BECMG 26015KT
Conditions at: EDDM (MUNICH-FLUGHAFEN, DE) observed 1920 UTC 24 April 2019
Temperature: 20.0°C (68°F)
Dewpoint: 2.0°C (36°F) [RH = 30%]
Pressure (altimeter): 29.70 inches Hg (1006.0 mb)
Winds: from the S (180 degrees) at 15 MPH (13 knots; 6.7 m/s)
Visibility: 6 or more miles (10+ km)
Ceiling: ceiling and visibility are OK
Clouds: unknown
Weather: no significant weather observed at this time

METAR text: EDDM 241850Z 17014KT CAVOK 20/02 Q1005 BECMG 26015KT
Conditions at: EDDM (MUNICH-FLUGHAFEN, DE) observed 1850 UTC 24 April 2019
Temperature: 20.0°C (68°F)
Dewpoint: 2.0°C (36°F) [RH = 30%]
Pressure (altimeter): 29.68 inches Hg (1005.0 mb)
Winds: from the S (170 degrees) at 16 MPH (14 knots; 7.2 m/s)
Visibility: 6 or more miles (10+ km)
Ceiling: ceiling and visibility are OK
Clouds: unknown
Weather: no significant weather observed at this time

METAR text: EDDM 241820Z 16009KT CAVOK 20/02 Q1005 NOSIG
Conditions at: EDDM (MUNICH-FLUGHAFEN, DE) observed 1820 UTC 24 April 2019
Temperature: 20.0°C (68°F)
Dewpoint: 2.0°C (36°F) [RH = 30%]
Pressure (altimeter): 29.68 inches Hg (1005.0 mb)
Winds: from the SSE (160 degrees) at 10 MPH (9 knots; 4.6 m/s)
Visibility: 6 or more miles (10+ km)
Ceiling: ceiling and visibility are OK
Clouds: unknown
Weather: no significant weather observed at this time

METAR text: EDDM 241750Z 17009KT CAVOK 21/02 Q1004 NOSIG
Conditions at: EDDM (MUNICH-FLUGHAFEN, DE) observed 1750 UTC 24 April 2019
Temperature: 21.0°C (70°F)
Dewpoint: 2.0°C (36°F) [RH = 28%]
Pressure (altimeter): 29.65 inches Hg (1004.0 mb)
Winds: from the S (170 degrees) at 10 MPH (9 knots; 4.6 m/s)
Visibility: 6 or more miles (10+ km)
Ceiling: ceiling and visibility are OK
Clouds: unknown
Weather: no significant weather observed at this time

METAR text: EDDM 241720Z 17014KT CAVOK 21/02 Q1004 NOSIG
Conditions at: EDDM (MUNICH-FLUGHAFEN, DE) observed 1720 UTC 24 April 2019
Temperature: 21.0°C (70°F)
Dewpoint: 2.0°C (36°F) [RH = 28%]
Pressure (altimeter): 29.65 inches Hg (1004.0 mb)
Winds: from the S (170 degrees) at 16 MPH (14 knots; 7.2 m/s)
Visibility: 6 or more miles (10+ km)
Ceiling: ceiling and visibility are OK
Clouds: unknown
Weather: no significant weather observed at this time

METAR text: EDDM 241650Z 17014KT CAVOK 21/02 Q1004 NOSIG
Conditions at: EDDM (MUNICH-FLUGHAFEN, DE) observed 1650 UTC 24 April 2019
Temperature: 21.0°C (70°F)
Dewpoint: 2.0°C (36°F) [RH = 28%]
Pressure (altimeter): 29.65 inches Hg (1004.0 mb)
Winds: from the S (170 degrees) at 16 MPH (14 knots; 7.2 m/s)
Visibility: 6 or more miles (10+ km)
Ceiling: ceiling and visibility are OK
Clouds: unknown
Weather: no significant weather observed at this time

METAR text: EDDM 241620Z 17015KT CAVOK 22/02 Q1004 TEMPO 16020G30KT
Conditions at: EDDM (MUNICH-FLUGHAFEN, DE) observed 1620 UTC 24 April 2019
Temperature: 22.0°C (72°F)
Dewpoint: 2.0°C (36°F) [RH = 27%]
Pressure (altimeter): 29.65 inches Hg (1004.0 mb)
Winds: from the S (170 degrees) at 17 MPH (15 knots; 7.7 m/s)
Visibility: 6 or more miles (10+ km)
Ceiling: ceiling and visibility are OK
Clouds: unknown
Weather: no significant weather observed at this time

METAR text: EDDM 241550Z 18016KT CAVOK 23/02 Q1004 TEMPO 16020G30KT
Conditions at: EDDM (MUNICH-FLUGHAFEN, DE) observed 1550 UTC 24 April 2019
Temperature: 23.0°C (73°F)
Dewpoint: 2.0°C (36°F) [RH = 25%]
Pressure (altimeter): 29.65 inches Hg (1004.0 mb)
Winds: from the S (180 degrees) at 18 MPH (16 knots; 8.2 m/s)
Visibility: 6 or more miles (10+ km)
Ceiling: ceiling and visibility are OK
Clouds: unknown
Weather: no significant weather observed at this time

METAR text: EDDM 241520Z 16017KT CAVOK 24/02 Q1004 TEMPO 16020G30KT
Conditions at: EDDM (MUNICH-FLUGHAFEN, DE) observed 1520 UTC 24 April 2019
Temperature: 24.0°C (75°F)
Dewpoint: 2.0°C (36°F) [RH = 24%]
Pressure (altimeter): 29.65 inches Hg (1004.0 mb)
Winds: from the SSE (160 degrees) at 20 MPH (17 knots; 8.7 m/s)
Visibility: 6 or more miles (10+ km)
Ceiling: ceiling and visibility are OK
Clouds: unknown
Weather: no significant weather observed at this time

METAR text: EDDM 241450Z 16016KT CAVOK 25/03 Q1004 NOSIG
Conditions at: EDDM (MUNICH-FLUGHAFEN, DE) observed 1450 UTC 24 April 2019
Temperature: 25.0°C (77°F)
Dewpoint: 3.0°C (37°F) [RH = 24%]
Pressure (altimeter): 29.65 inches Hg (1004.0 mb)
Winds: from the SSE (160 degrees) at 18 MPH (16 knots; 8.2 m/s)
Visibility: 6 or more miles (10+ km)
Ceiling: ceiling and visibility are OK
Clouds: unknown
Weather: no significant weather observed at this time

METAR text: EDDM 241420Z 15013G24KT CAVOK 25/03 Q1003 NOSIG
Conditions at: EDDM (MUNICH-FLUGHAFEN, DE) observed 1420 UTC 24 April 2019
Temperature: 25.0°C (77°F)
Dewpoint: 3.0°C (37°F) [RH = 24%]
Pressure (altimeter): 29.62 inches Hg (1003.0 mb)
Winds: from the SSE (150 degrees) at 15 MPH (13 knots; 6.7 m/s)
gusting to 28 MPH (24 knots; 12.3 m/s)
Visibility: 6 or more miles (10+ km)
Ceiling: ceiling and visibility are OK
Clouds: unknown
Weather: no significant weather observed at this time

METAR text: EDDM 241350Z 16014KT 140V200 CAVOK 25/04 Q1003 NOSIG
Conditions at: EDDM (MUNICH-FLUGHAFEN, DE) observed 1350 UTC 24 April 2019
Temperature: 25.0°C (77°F)
Dewpoint: 4.0°C (39°F) [RH = 26%]
Pressure (altimeter): 29.62 inches Hg (1003.0 mb)
Winds: from the SSE (160 degrees) at 16 MPH (14 knots; 7.2 m/s)
Visibility: 6 or more miles (10+ km)
Ceiling: ceiling and visibility are OK
Clouds: unknown
Weather: no significant weather observed at this time

METAR text: EDDM 241320Z 14014G24KT 110V170 CAVOK 26/05 Q1003 NOSIG
Conditions at: EDDM (MUNICH-FLUGHAFEN, DE) observed 1320 UTC 24 April 2019
Temperature: 26.0°C (79°F)
Dewpoint: 5.0°C (41°F) [RH = 26%]
Pressure (altimeter): 29.62 inches Hg (1003.0 mb)
Winds: from the SE (140 degrees) at 16 MPH (14 knots; 7.2 m/s)
gusting to 28 MPH (24 knots; 12.3 m/s)
Visibility: 6 or more miles (10+ km)
Ceiling: ceiling and visibility are OK
Clouds: unknown
Weather: no significant weather observed at this time

METAR text: EDDM 241250Z 13012KT 100V170 CAVOK 26/05 Q1004 NOSIG
Conditions at: EDDM (MUNICH-FLUGHAFEN, DE) observed 1250 UTC 24 April 2019
Temperature: 26.0°C (79°F)
Dewpoint: 5.0°C (41°F) [RH = 26%]
Pressure (altimeter): 29.65 inches Hg (1004.0 mb)
Winds: from the SE (130 degrees) at 14 MPH (12 knots; 6.2 m/s)
Visibility: 6 or more miles (10+ km)
Ceiling: ceiling and visibility are OK
Clouds: unknown
Weather: no significant weather observed at this time

METAR text: EDDM 241220Z 15008KT 120V200 CAVOK 25/03 Q1004 NOSIG
Conditions at: EDDM (MUNICH-FLUGHAFEN, DE) observed 1220 UTC 24 April 2019
Temperature: 25.0°C (77°F)
Dewpoint: 3.0°C (37°F) [RH = 24%]
Pressure (altimeter): 29.65 inches Hg (1004.0 mb)
Winds: from the SSE (150 degrees) at 9 MPH (8 knots; 4.1 m/s)
Visibility: 6 or more miles (10+ km)
Ceiling: ceiling and visibility are OK
Clouds: unknown
Weather: no significant weather observed at this time

METAR text: EDDM 241150Z 15010KT 090V180 CAVOK 25/03 Q1004 NOSIG
Conditions at: EDDM (MUNICH-FLUGHAFEN, DE) observed 1150 UTC 24 April 2019
Temperature: 25.0°C (77°F)
Dewpoint: 3.0°C (37°F) [RH = 24%]
Pressure (altimeter): 29.65 inches Hg (1004.0 mb)
Winds: from the SSE (150 degrees) at 12 MPH (10 knots; 5.1 m/s)
Visibility: 6 or more miles (10+ km)
Ceiling: ceiling and visibility are OK
Clouds: unknown
Weather: no significant weather observed at this time

METAR text: EDDM 241120Z 16011KT 110V210 CAVOK 25/02 Q1004 NOSIG
Conditions at: EDDM (MUNICH-FLUGHAFEN, DE) observed 1120 UTC 24 April 2019
Temperature: 25.0°C (77°F)
Dewpoint: 2.0°C (36°F) [RH = 22%]
Pressure (altimeter): 29.65 inches Hg (1004.0 mb)
Winds: from the SSE (160 degrees) at 13 MPH (11 knots; 5.7 m/s)
Visibility: 6 or more miles (10+ km)
Ceiling: ceiling and visibility are OK
Clouds: unknown
Weather: no significant weather observed at this time

METAR text: EDDM 241050Z 15010KT 120V210 CAVOK 25/04 Q1004 NOSIG
Conditions at: EDDM (MUNICH-FLUGHAFEN, DE) observed 1050 UTC 24 April 2019
Temperature: 25.0°C (77°F)
Dewpoint: 4.0°C (39°F) [RH = 26%]
Pressure (altimeter): 29.65 inches Hg (1004.0 mb)
Winds: from the SSE (150 degrees) at 12 MPH (10 knots; 5.1 m/s)
Visibility: 6 or more miles (10+ km)
Ceiling: ceiling and visibility are OK
Clouds: unknown
Weather: no significant weather observed at this time

METAR text: EDDM 241020Z VRB05KT CAVOK 24/04 Q1004 NOSIG
Conditions at: EDDM (MUNICH-FLUGHAFEN, DE) observed 1020 UTC 24 April 2019
Temperature: 24.0°C (75°F)
Dewpoint: 4.0°C (39°F) [RH = 27%]
Pressure (altimeter): 29.65 inches Hg (1004.0 mb)
Winds: variable direction winds at 6 MPH (5 knots; 2.6 m/s)
Visibility: 6 or more miles (10+ km)
Ceiling: ceiling and visibility are OK
Clouds: unknown
Weather: no significant weather observed at this time

METAR text: EDDM 240950Z VRB07G18KT CAVOK 24/03 Q1004 NOSIG
Conditions at: EDDM (MUNICH-FLUGHAFEN, DE) observed 0950 UTC 24 April 2019
Temperature: 24.0°C (75°F)
Dewpoint: 3.0°C (37°F) [RH = 25%]
Pressure (altimeter): 29.65 inches Hg (1004.0 mb)
Winds: variable direction winds at 8 MPH (7 knots; 3.6 m/s)
gusting to 21 MPH (18 knots; 9.3 m/s)
Visibility: 6 or more miles (10+ km)
Ceiling: ceiling and visibility are OK
Clouds: unknown
Weather: no significant weather observed at this time

METAR text: EDDM 240920Z VRB03KT CAVOK 23/07 Q1004 NOSIG
Conditions at: EDDM (MUNICH-FLUGHAFEN, DE) observed 0920 UTC 24 April 2019
Temperature: 23.0°C (73°F)
Dewpoint: 7.0°C (45°F) [RH = 36%]
Pressure (altimeter): 29.65 inches Hg (1004.0 mb)
Winds: variable direction winds at 3 MPH (3 knots; 1.5 m/s)
Visibility: 6 or more miles (10+ km)
Ceiling: ceiling and visibility are OK
Clouds: unknown
Weather: no significant weather observed at this time

METAR text: EDDM 240850Z VRB03KT CAVOK 21/07 Q1005 NOSIG
Conditions at: EDDM (MUNICH-FLUGHAFEN, DE) observed 0850 UTC 24 April 2019
Temperature: 21.0°C (70°F)
Dewpoint: 7.0°C (45°F) [RH = 40%]
Pressure (altimeter): 29.68 inches Hg (1005.0 mb)
Winds: variable direction winds at 3 MPH (3 knots; 1.5 m/s)
Visibility: 6 or more miles (10+ km)
Ceiling: ceiling and visibility are OK
Clouds: unknown
Weather: no significant weather observed at this time

METAR text: EDDM 240820Z 08005KT 040V110 CAVOK 19/08 Q1005 NOSIG
Conditions at: EDDM (MUNICH-FLUGHAFEN, DE) observed 0820 UTC 24 April 2019
Temperature: 19.0°C (66°F)
Dewpoint: 8.0°C (46°F) [RH = 49%]
Pressure (altimeter): 29.68 inches Hg (1005.0 mb)
Winds: from the E (80 degrees) at 6 MPH (5 knots; 2.6 m/s)
Visibility: 6 or more miles (10+ km)
Ceiling: ceiling and visibility are OK
Clouds: unknown
Weather: no significant weather observed at this time

METAR text: EDDM 240750Z 06004KT 010V100 CAVOK 17/08 Q1004 NOSIG
Conditions at: EDDM (MUNICH-FLUGHAFEN, DE) observed 0750 UTC 24 April 2019
Temperature: 17.0°C (63°F)
Dewpoint: 8.0°C (46°F) [RH = 55%]
Pressure (altimeter): 29.65 inches Hg (1004.0 mb)
Winds: from the ENE (60 degrees) at 5 MPH (4 knots; 2.1 m/s)
Visibility: 6 or more miles (10+ km)
Ceiling: ceiling and visibility are OK
Clouds: unknown
Weather: no significant weather observed at this time

METAR text: EDDM 240720Z 07005KT CAVOK 15/07 Q1004 NOSIG
Conditions at: EDDM (MUNICH-FLUGHAFEN, DE) observed 0720 UTC 24 April 2019
Temperature: 15.0°C (59°F)
Dewpoint: 7.0°C (45°F) [RH = 59%]
Pressure (altimeter): 29.65 inches Hg (1004.0 mb)
Winds: from the ENE (70 degrees) at 6 MPH (5 knots; 2.6 m/s)
Visibility: 6 or more miles (10+ km)
Ceiling: ceiling and visibility are OK
Clouds: unknown
Weather: no significant weather observed at this time

METAR text: EDDM 240650Z 08006KT CAVOK 14/07 Q1004 NOSIG
Conditions at: EDDM (MUNICH-FLUGHAFEN, DE) observed 0650 UTC 24 April 2019
Temperature: 14.0°C (57°F)
Dewpoint: 7.0°C (45°F) [RH = 63%]
Pressure (altimeter): 29.65 inches Hg (1004.0 mb)
Winds: from the E (80 degrees) at 7 MPH (6 knots; 3.1 m/s)
Visibility: 6 or more miles (10+ km)
Ceiling: ceiling and visibility are OK
Clouds: unknown
Weather: no significant weather observed at this time

METAR text: EDDM 240620Z 07006KT CAVOK 12/06 Q1004 NOSIG
Conditions at: EDDM (MUNICH-FLUGHAFEN, DE) observed 0620 UTC 24 April 2019
Temperature: 12.0°C (54°F)
Dewpoint: 6.0°C (43°F) [RH = 67%]
Pressure (altimeter): 29.65 inches Hg (1004.0 mb)
Winds: from the ENE (70 degrees) at 7 MPH (6 knots; 3.1 m/s)
Visibility: 6 or more miles (10+ km)
Ceiling: ceiling and visibility are OK
Clouds: unknown
Weather: no significant weather observed at this time

METAR text: EDDM 240550Z 06006KT CAVOK 10/05 Q1004 NOSIG
Conditions at: EDDM (MUNICH-FLUGHAFEN, DE) observed 0550 UTC 24 April 2019
Temperature: 10.0°C (50°F)
Dewpoint: 5.0°C (41°F) [RH = 71%]
Pressure (altimeter): 29.65 inches Hg (1004.0 mb)
Winds: from the ENE (60 degrees) at 7 MPH (6 knots; 3.1 m/s)
Visibility: 6 or more miles (10+ km)
Ceiling: ceiling and visibility are OK
Clouds: unknown
Weather: no significant weather observed at this time

METAR text: EDDM 240520Z 04003KT 340V110 CAVOK 07/05 Q1004 NOSIG
Conditions at: EDDM (MUNICH-FLUGHAFEN, DE) observed 0520 UTC 24 April 2019
Temperature: 7.0°C (45°F)
Dewpoint: 5.0°C (41°F) [RH = 87%]
Pressure (altimeter): 29.65 inches Hg (1004.0 mb)
Winds: from the NE (40 degrees) at 3 MPH (3 knots; 1.5 m/s)
Visibility: 6 or more miles (10+ km)
Ceiling: ceiling and visibility are OK
Clouds: unknown
Weather: no significant weather observed at this time

METAR text: EDDM 240450Z 06003KT CAVOK 06/03 Q1003 NOSIG
Conditions at: EDDM (MUNICH-FLUGHAFEN, DE) observed 0450 UTC 24 April 2019
Temperature: 6.0°C (43°F)
Dewpoint: 3.0°C (37°F) [RH = 81%]
Pressure (altimeter): 29.62 inches Hg (1003.0 mb)
Winds: from the ENE (60 degrees) at 3 MPH (3 knots; 1.5 m/s)
Visibility: 6 or more miles (10+ km)
Ceiling: ceiling and visibility are OK
Clouds: unknown
Weather: no significant weather observed at this time

METAR text: EDDM 240420Z VRB02KT CAVOK 06/04 Q1003 NOSIG
Conditions at: EDDM (MUNICH-FLUGHAFEN, DE) observed 0420 UTC 24 April 2019
Temperature: 6.0°C (43°F)
Dewpoint: 4.0°C (39°F) [RH = 87%]
Pressure (altimeter): 29.62 inches Hg (1003.0 mb)
Winds: variable direction winds at 2 MPH (2 knots; 1.0 m/s)
Visibility: 6 or more miles (10+ km)
Ceiling: ceiling and visibility are OK
Clouds: unknown
Weather: no significant weather observed at this time

METAR text: EDDM 240350Z VRB02KT CAVOK 07/04 Q1003 NOSIG
Conditions at: EDDM (MUNICH-FLUGHAFEN, DE) observed 0350 UTC 24 April 2019
Temperature: 7.0°C (45°F)
Dewpoint: 4.0°C (39°F) [RH = 81%]
Pressure (altimeter): 29.62 inches Hg (1003.0 mb)
Winds: variable direction winds at 2 MPH (2 knots; 1.0 m/s)
Visibility: 6 or more miles (10+ km)
Ceiling: ceiling and visibility are OK
Clouds: unknown
Weather: no significant weather observed at this time

METAR text: EDDM 240320Z 04005KT CAVOK 07/04 Q1002 NOSIG
Conditions at: EDDM (MUNICH-FLUGHAFEN, DE) observed 0320 UTC 24 April 2019
Temperature: 7.0°C (45°F)
Dewpoint: 4.0°C (39°F) [RH = 81%]
Pressure (altimeter): 29.59 inches Hg (1002.0 mb)
Winds: from the NE (40 degrees) at 6 MPH (5 knots; 2.6 m/s)
Visibility: 6 or more miles (10+ km)
Ceiling: ceiling and visibility are OK
Clouds: unknown
Weather: no significant weather observed at this time

METAR text: EDDM 240250Z 05005KT CAVOK 08/04 Q1002 NOSIG
Conditions at: EDDM (MUNICH-FLUGHAFEN, DE) observed 0250 UTC 24 April 2019
Temperature: 8.0°C (46°F)
Dewpoint: 4.0°C (39°F) [RH = 76%]
Pressure (altimeter): 29.59 inches Hg (1002.0 mb)
Winds: from the NE (50 degrees) at 6 MPH (5 knots; 2.6 m/s)
Visibility: 6 or more miles (10+ km)
Ceiling: ceiling and visibility are OK
Clouds: unknown
Weather: no significant weather observed at this time

METAR text: EDDM 240220Z 06005KT CAVOK 08/04 Q1002 NOSIG
Conditions at: EDDM (MUNICH-FLUGHAFEN, DE) observed 0220 UTC 24 April 2019
Temperature: 8.0°C (46°F)
Dewpoint: 4.0°C (39°F) [RH = 76%]
Pressure (altimeter): 29.59 inches Hg (1002.0 mb)
Winds: from the ENE (60 degrees) at 6 MPH (5 knots; 2.6 m/s)
Visibility: 6 or more miles (10+ km)
Ceiling: ceiling and visibility are OK
Clouds: unknown
Weather: no significant weather observed at this time

METAR text: EDDM 240150Z 06006KT CAVOK 08/04 Q1002 NOSIG
Conditions at: EDDM (MUNICH-FLUGHAFEN, DE) observed 0150 UTC 24 April 2019
Temperature: 8.0°C (46°F)
Dewpoint: 4.0°C (39°F) [RH = 76%]
Pressure (altimeter): 29.59 inches Hg (1002.0 mb)
Winds: from the ENE (60 degrees) at 7 MPH (6 knots; 3.1 m/s)
Visibility: 6 or more miles (10+ km)
Ceiling: ceiling and visibility are OK
Clouds: unknown
Weather: no significant weather observed at this time

METAR text: EDDM 240120Z 06004KT CAVOK 07/05 Q1002 NOSIG
Conditions at: EDDM (MUNICH-FLUGHAFEN, DE) observed 0120 UTC 24 April 2019
Temperature: 7.0°C (45°F)
Dewpoint: 5.0°C (41°F) [RH = 87%]
Pressure (altimeter): 29.59 inches Hg (1002.0 mb)
Winds: from the ENE (60 degrees) at 5 MPH (4 knots; 2.1 m/s)
Visibility: 6 or more miles (10+ km)
Ceiling: ceiling and visibility are OK
Clouds: unknown
Weather: no significant weather observed at this time

METAR text: EDDM 240050Z 06004KT CAVOK 08/05 Q1002 NOSIG
Conditions at: EDDM (MUNICH-FLUGHAFEN, DE) observed 0050 UTC 24 April 2019
Temperature: 8.0°C (46°F)
Dewpoint: 5.0°C (41°F) [RH = 81%]
Pressure (altimeter): 29.59 inches Hg (1002.0 mb)
Winds: from the ENE (60 degrees) at 5 MPH (4 knots; 2.1 m/s)
Visibility: 6 or more miles (10+ km)
Ceiling: ceiling and visibility are OK
Clouds: unknown
Weather: no significant weather observed at this time

METAR text: EDDM 240020Z 04004KT CAVOK 08/05 Q1002 NOSIG
Conditions at: EDDM (MUNICH-FLUGHAFEN, DE) observed 0020 UTC 24 April 2019
Temperature: 8.0°C (46°F)
Dewpoint: 5.0°C (41°F) [RH = 81%]
Pressure (altimeter): 29.59 inches Hg (1002.0 mb)
Winds: from the NE (40 degrees) at 5 MPH (4 knots; 2.1 m/s)
Visibility: 6 or more miles (10+ km)
Ceiling: ceiling and visibility are OK
Clouds: unknown
Weather: no significant weather observed at this time

METAR text: EDDM 232350Z 07004KT CAVOK 09/05 Q1002 NOSIG
Conditions at: EDDM (MUNICH-FLUGHAFEN, DE) observed 2350 UTC 23 April 2019
Temperature: 9.0°C (48°F)
Dewpoint: 5.0°C (41°F) [RH = 76%]
Pressure (altimeter): 29.59 inches Hg (1002.0 mb)
Winds: from the ENE (70 degrees) at 5 MPH (4 knots; 2.1 m/s)
Visibility: 6 or more miles (10+ km)
Ceiling: ceiling and visibility are OK
Clouds: unknown
Weather: no significant weather observed at this time

METAR text: EDDM 232320Z 06004KT 030V090 CAVOK 10/05 Q1002 NOSIG
Conditions at: EDDM (MUNICH-FLUGHAFEN, DE) observed 2320 UTC 23 April 2019
Temperature: 10.0°C (50°F)
Dewpoint: 5.0°C (41°F) [RH = 71%]
Pressure (altimeter): 29.59 inches Hg (1002.0 mb)
Winds: from the ENE (60 degrees) at 5 MPH (4 knots; 2.1 m/s)
Visibility: 6 or more miles (10+ km)
Ceiling: ceiling and visibility are OK
Clouds: unknown
Weather: no significant weather observed at this time

METAR text: EDDM 232250Z 05004KT CAVOK 10/05 Q1002 NOSIG
Conditions at: EDDM (MUNICH-FLUGHAFEN, DE) observed 2250 UTC 23 April 2019
Temperature: 10.0°C (50°F)
Dewpoint: 5.0°C (41°F) [RH = 71%]
Pressure (altimeter): 29.59 inches Hg (1002.0 mb)
Winds: from the NE (50 degrees) at 5 MPH (4 knots; 2.1 m/s)
Visibility: 6 or more miles (10+ km)
Ceiling: ceiling and visibility are OK
Clouds: unknown
Weather: no significant weather observed at this time

METAR text: EDDM 232220Z 04003KT 360V060 CAVOK 11/06 Q1002 NOSIG
Conditions at: EDDM (MUNICH-FLUGHAFEN, DE) observed 2220 UTC 23 April 2019
Temperature: 11.0°C (52°F)
Dewpoint: 6.0°C (43°F) [RH = 71%]
Pressure (altimeter): 29.59 inches Hg (1002.0 mb)
Winds: from the NE (40 degrees) at 3 MPH (3 knots; 1.5 m/s)
Visibility: 6 or more miles (10+ km)
Ceiling: ceiling and visibility are OK
Clouds: unknown
Weather: no significant weather observed at this time

METAR text: EDDM 232150Z 07005KT CAVOK 11/06 Q1002 NOSIG
Conditions at: EDDM (MUNICH-FLUGHAFEN, DE) observed 2150 UTC 23 April 2019
Temperature: 11.0°C (52°F)
Dewpoint: 6.0°C (43°F) [RH = 71%]
Pressure (altimeter): 29.59 inches Hg (1002.0 mb)
Winds: from the ENE (70 degrees) at 6 MPH (5 knots; 2.6 m/s)
Visibility: 6 or more miles (10+ km)
Ceiling: ceiling and visibility are OK
Clouds: unknown
Weather: no significant weather observed at this time

METAR text: EDDM 232120Z 07006KT CAVOK 12/06 Q1001 NOSIG
Conditions at: EDDM (MUNICH-FLUGHAFEN, DE) observed 2120 UTC 23 April 2019
Temperature: 12.0°C (54°F)
Dewpoint: 6.0°C (43°F) [RH = 67%]
Pressure (altimeter): 29.56 inches Hg (1001.0 mb)
Winds: from the ENE (70 degrees) at 7 MPH (6 knots; 3.1 m/s)
Visibility: 6 or more miles (10+ km)
Ceiling: ceiling and visibility are OK
Clouds: unknown
Weather: no significant weather observed at this time

METAR text: EDDM 232050Z 08009KT CAVOK 12/06 Q1001 NOSIG
Conditions at: EDDM (MUNICH-FLUGHAFEN, DE) observed 2050 UTC 23 April 2019
Temperature: 12.0°C (54°F)
Dewpoint: 6.0°C (43°F) [RH = 67%]
Pressure (altimeter): 29.56 inches Hg (1001.0 mb)
Winds: from the E (80 degrees) at 10 MPH (9 knots; 4.6 m/s)
Visibility: 6 or more miles (10+ km)
Ceiling: ceiling and visibility are OK
Clouds: unknown
Weather: no significant weather observed at this time

METAR text: EDDM 232020Z 07008KT CAVOK 13/06 Q1001 NOSIG
Conditions at: EDDM (MUNICH-FLUGHAFEN, DE) observed 2020 UTC 23 April 2019
Temperature: 13.0°C (55°F)
Dewpoint: 6.0°C (43°F) [RH = 62%]
Pressure (altimeter): 29.56 inches Hg (1001.0 mb)
Winds: from the ENE (70 degrees) at 9 MPH (8 knots; 4.1 m/s)
Visibility: 6 or more miles (10+ km)
Ceiling: ceiling and visibility are OK
Clouds: unknown
Weather: no significant weather observed at this time

METAR text: EDDM 231950Z 08008KT CAVOK 13/06 Q1001 NOSIG
Conditions at: EDDM (MUNICH-FLUGHAFEN, DE) observed 1950 UTC 23 April 2019
Temperature: 13.0°C (55°F)
Dewpoint: 6.0°C (43°F) [RH = 62%]
Pressure (altimeter): 29.56 inches Hg (1001.0 mb)
Winds: from the E (80 degrees) at 9 MPH (8 knots; 4.1 m/s)
Visibility: 6 or more miles (10+ km)
Ceiling: ceiling and visibility are OK
Clouds: unknown
Weather: no significant weather observed at this time

METAR text: EDDM 231920Z 08008KT CAVOK 14/07 Q1001 NOSIG
Conditions at: EDDM (MUNICH-FLUGHAFEN, DE) observed 1920 UTC 23 April 2019
Temperature: 14.0°C (57°F)
Dewpoint: 7.0°C (45°F) [RH = 63%]
Pressure (altimeter): 29.56 inches Hg (1001.0 mb)
Winds: from the E (80 degrees) at 9 MPH (8 knots; 4.1 m/s)
Visibility: 6 or more miles (10+ km)
Ceiling: ceiling and visibility are OK
Clouds: unknown
Weather: no significant weather observed at this time

METAR text: EDDM 231850Z 08011KT CAVOK 15/07 Q1001 NOSIG
Conditions at: EDDM (MUNICH-FLUGHAFEN, DE) observed 1850 UTC 23 April 2019
Temperature: 15.0°C (59°F)
Dewpoint: 7.0°C (45°F) [RH = 59%]
Pressure (altimeter): 29.56 inches Hg (1001.0 mb)
Winds: from the E (80 degrees) at 13 MPH (11 knots; 5.7 m/s)
Visibility: 6 or more miles (10+ km)
Ceiling: ceiling and visibility are OK
Clouds: unknown
Weather: no significant weather observed at this time

METAR text: EDDM 231820Z 08011KT CAVOK 15/07 Q1001 NOSIG
Conditions at: EDDM (MUNICH-FLUGHAFEN, DE) observed 1820 UTC 23 April 2019
Temperature: 15.0°C (59°F)
Dewpoint: 7.0°C (45°F) [RH = 59%]
Pressure (altimeter): 29.56 inches Hg (1001.0 mb)
Winds: from the E (80 degrees) at 13 MPH (11 knots; 5.7 m/s)
Visibility: 6 or more miles (10+ km)
Ceiling: ceiling and visibility are OK
Clouds: unknown
Weather: no significant weather observed at this time

METAR text: EDDM 231750Z 07011KT CAVOK 16/07 Q1001 NOSIG
Conditions at: EDDM (MUNICH-FLUGHAFEN, DE) observed 1750 UTC 23 April 2019
Temperature: 16.0°C (61°F)
Dewpoint: 7.0°C (45°F) [RH = 55%]
Pressure (altimeter): 29.56 inches Hg (1001.0 mb)
Winds: from the ENE (70 degrees) at 13 MPH (11 knots; 5.7 m/s)
Visibility: 6 or more miles (10+ km)
Ceiling: ceiling and visibility are OK
Clouds: unknown
Weather: no significant weather observed at this time

METAR text: EDDM 231720Z 06010KT 030V090 CAVOK 17/07 Q1001 NOSIG
Conditions at: EDDM (MUNICH-FLUGHAFEN, DE) observed 1720 UTC 23 April 2019
Temperature: 17.0°C (63°F)
Dewpoint: 7.0°C (45°F) [RH = 52%]
Pressure (altimeter): 29.56 inches Hg (1001.0 mb)
Winds: from the ENE (60 degrees) at 12 MPH (10 knots; 5.1 m/s)
Visibility: 6 or more miles (10+ km)
Ceiling: ceiling and visibility are OK
Clouds: unknown
Weather: no significant weather observed at this time

METAR text: EDDM 231650Z 07011KT CAVOK 18/07 Q1000 NOSIG
Conditions at: EDDM (MUNICH-FLUGHAFEN, DE) observed 1650 UTC 23 April 2019
Temperature: 18.0°C (64°F)
Dewpoint: 7.0°C (45°F) [RH = 49%]
Pressure (altimeter): 29.53 inches Hg (1000.0 mb)
Winds: from the ENE (70 degrees) at 13 MPH (11 knots; 5.7 m/s)
Visibility: 6 or more miles (10+ km)
Ceiling: ceiling and visibility are OK
Clouds: unknown
Weather: no significant weather observed at this time

METAR text: EDDM 231620Z 08012KT CAVOK 18/07 Q1000 NOSIG
Conditions at: EDDM (MUNICH-FLUGHAFEN, DE) observed 1620 UTC 23 April 2019
Temperature: 18.0°C (64°F)
Dewpoint: 7.0°C (45°F) [RH = 49%]
Pressure (altimeter): 29.53 inches Hg (1000.0 mb)
Winds: from the E (80 degrees) at 14 MPH (12 knots; 6.2 m/s)
Visibility: 6 or more miles (10+ km)
Ceiling: ceiling and visibility are OK
Clouds: unknown
Weather: no significant weather observed at this time

METAR text: EDDM 231550Z 09016KT CAVOK 18/07 Q1000 NOSIG
Conditions at: EDDM (MUNICH-FLUGHAFEN, DE) observed 1550 UTC 23 April 2019
Temperature: 18.0°C (64°F)
Dewpoint: 7.0°C (45°F) [RH = 49%]
Pressure (altimeter): 29.53 inches Hg (1000.0 mb)
Winds: from the E (90 degrees) at 18 MPH (16 knots; 8.2 m/s)
Visibility: 6 or more miles (10+ km)
Ceiling: ceiling and visibility are OK
Clouds: unknown
Weather: no significant weather observed at this time

METAR text: EDDM 231520Z 09015KT CAVOK 19/07 Q1000 NOSIG
Conditions at: EDDM (MUNICH-FLUGHAFEN, DE) observed 1520 UTC 23 April 2019
Temperature: 19.0°C (66°F)
Dewpoint: 7.0°C (45°F) [RH = 46%]
Pressure (altimeter): 29.53 inches Hg (1000.0 mb)
Winds: from the E (90 degrees) at 17 MPH (15 knots; 7.7 m/s)
Visibility: 6 or more miles (10+ km)
Ceiling: ceiling and visibility are OK
Clouds: unknown
Weather: no significant weather observed at this time

METAR text: EDDM 231450Z 10016KT CAVOK 19/06 Q1000 NOSIG
Conditions at: EDDM (MUNICH-FLUGHAFEN, DE) observed 1450 UTC 23 April 2019
Temperature: 19.0°C (66°F)
Dewpoint: 6.0°C (43°F) [RH = 43%]
Pressure (altimeter): 29.53 inches Hg (1000.0 mb)
Winds: from the E (100 degrees) at 18 MPH (16 knots; 8.2 m/s)
Visibility: 6 or more miles (10+ km)
Ceiling: ceiling and visibility are OK
Clouds: unknown
Weather: no significant weather observed at this time

METAR text: EDDM 231420Z 10015KT CAVOK 20/06 Q1000 NOSIG
Conditions at: EDDM (MUNICH-FLUGHAFEN, DE) observed 1420 UTC 23 April 2019
Temperature: 20.0°C (68°F)
Dewpoint: 6.0°C (43°F) [RH = 40%]
Pressure (altimeter): 29.53 inches Hg (1000.0 mb)
Winds: from the E (100 degrees) at 17 MPH (15 knots; 7.7 m/s)
Visibility: 6 or more miles (10+ km)
Ceiling: ceiling and visibility are OK
Clouds: unknown
Weather: no significant weather observed at this time

METAR text: EDDM 231350Z 09015KT CAVOK 20/06 Q1000 NOSIG
Conditions at: EDDM (MUNICH-FLUGHAFEN, DE) observed 1350 UTC 23 April 2019
Temperature: 20.0°C (68°F)
Dewpoint: 6.0°C (43°F) [RH = 40%]
Pressure (altimeter): 29.53 inches Hg (1000.0 mb)
Winds: from the E (90 degrees) at 17 MPH (15 knots; 7.7 m/s)
Visibility: 6 or more miles (10+ km)
Ceiling: ceiling and visibility are OK
Clouds: unknown
Weather: no significant weather observed at this time

METAR text: EDDM 231320Z 10016KT CAVOK 20/07 Q1000 NOSIG
Conditions at: EDDM (MUNICH-FLUGHAFEN, DE) observed 1320 UTC 23 April 2019
Temperature: 20.0°C (68°F)
Dewpoint: 7.0°C (45°F) [RH = 43%]
Pressure (altimeter): 29.53 inches Hg (1000.0 mb)
Winds: from the E (100 degrees) at 18 MPH (16 knots; 8.2 m/s)
Visibility: 6 or more miles (10+ km)
Ceiling: ceiling and visibility are OK
Clouds: unknown
Weather: no significant weather observed at this time

METAR text: EDDM 231250Z 10014KT CAVOK 20/07 Q1000 NOSIG
Conditions at: EDDM (MUNICH-FLUGHAFEN, DE) observed 1250 UTC 23 April 2019
Temperature: 20.0°C (68°F)
Dewpoint: 7.0°C (45°F) [RH = 43%]
Pressure (altimeter): 29.53 inches Hg (1000.0 mb)
Winds: from the E (100 degrees) at 16 MPH (14 knots; 7.2 m/s)
Visibility: 6 or more miles (10+ km)
Ceiling: ceiling and visibility are OK
Clouds: unknown
Weather: no significant weather observed at this time

METAR text: EDDM 231220Z 09016KT CAVOK 20/08 Q1000 NOSIG
Conditions at: EDDM (MUNICH-FLUGHAFEN, DE) observed 1220 UTC 23 April 2019
Temperature: 20.0°C (68°F)
Dewpoint: 8.0°C (46°F) [RH = 46%]
Pressure (altimeter): 29.53 inches Hg (1000.0 mb)
Winds: from the E (90 degrees) at 18 MPH (16 knots; 8.2 m/s)
Visibility: 6 or more miles (10+ km)
Ceiling: ceiling and visibility are OK
Clouds: unknown
Weather: no significant weather observed at this time

Forecast for: EDDM (MUNICH-FLUGHAFEN, DE)
Text: TAF EDDM 242300Z 2500/2606 28006KT CAVOK
Forecast period: 0000 to 0100 UTC 25 April 2019
Forecast type: FROM: standard forecast or significant change
Winds: from the W (280 degrees) at 7 MPH (6 knots; 3.1 m/s)
Visibility: 6 or more miles 10+ km)
Ceiling: unknown
Clouds: missing
Weather: NSW  (no significant weather)
Text: BECMG 2501/2503 VRB03KT
Forecast period: 0100 to 0600 UTC 25 April 2019
Forecast type: BECOMING: Conditions expected to become as follows by 0300 UTC 25 April 2019
Winds: variable direction winds at 3 MPH (3 knots; 1.5 m/s)
Visibility: 6 or more miles 10+ km)
Ceiling: unknown
Clouds: missing
Weather: NSW  (no significant weather)
Text: BECMG 2506/2508 09008KT
Forecast period: 0600 to 1100 UTC 25 April 2019
Forecast type: BECOMING: Conditions expected to become as follows by 0800 UTC 25 April 2019
Winds: from the E (90 degrees) at 9 MPH (8 knots; 4.1 m/s)
Visibility: 6 or more miles 10+ km)
Ceiling: unknown
Clouds: missing
Weather: NSW  (no significant weather)
Text: BECMG 2511/2513 12015G25KT
Forecast period: 1100 to 1800 UTC 25 April 2019
Forecast type: BECOMING: Conditions expected to become as follows by 1300 UTC 25 April 2019
Winds: from the ESE (120 degrees) at 17 MPH (15 knots; 7.7 m/s)
gusting to 29 MPH (25 knots; 12.9 m/s)
Visibility: 6 or more miles 10+ km)
Ceiling: unknown
Clouds: missing
Weather: NSW  (no significant weather)
Text: BECMG 2518/2520 17008KT
Forecast period: 1800 to 2300 UTC 25 April 2019
Forecast type: BECOMING: Conditions expected to become as follows by 2000 UTC 25 April 2019
Winds: from the S (170 degrees) at 9 MPH (8 knots; 4.1 m/s)
Visibility: 6 or more miles 10+ km)
Ceiling: unknown
Clouds: missing
Weather: NSW  (no significant weather)
Text: BECMG 2523/2601 28005KT
Forecast period: 2300 UTC 25 April 2019 to 0600 UTC 26 April 2019
Forecast type: BECOMING: Conditions expected to become as follows by 0100 UTC 26 April 2019
Winds: from the W (280 degrees) at 6 MPH (5 knots; 2.6 m/s)
Visibility: 6 or more miles 10+ km)
Ceiling: unknown
Clouds: missing
Weather: NSW  (no significant weather)